San Diego, CA (92130)

1:25 PM PST on February 22, 2017 (GMT -0800)
Stone Canyon, Carmel Valley | | Change Station
Active Advisory: High Surf Advisory Active Notice: High Surf Advisory

Elev 197 ft 32.95 °N, 117.21 °W | Updated 11 seconds ago

Partly Cloudy
Partly Cloudy
59.9 °F
Feels Like 59.9 °F
N
0.2
Wind Variable Wind from North
Gusts 2.5 mph

Today
High -- | Low -- °F
--% Chance of Precip.
Yesterday
High -- | Low -- °F
Precip. -- in
Pressure 30.08 in
Visibility 10.0 miles
Clouds Scattered Clouds 4000 ft
Mostly Cloudy 10000 ft
Dew Point 47 °F
Humidity 63%
Rainfall 0.00 in
Snow Depth Not available.
6:24 AM 5:40 PM
Waning Crescent, 15% visible
METAR KNKX 222055Z 27010KT 10SM SCT040 BKN100 18/09 A3009 RMK AO2 SLP186 T01780094 58021 $
Pressure 30.08 in
Visibility 10.0 miles
Clouds Scattered Clouds 4000 ft
Mostly Cloudy 10000 ft
Dew Point 47 °F
Humidity 63%
Rainfall 0.00 in
Snow Depth Not available.
6:24 AM 5:40 PM
Waning Crescent, 15% visible
METAR KNKX 222055Z 27010KT 10SM SCT040 BKN100 18/09 A3009 RMK AO2 SLP186 T01780094 58021 $

Get Your Daily Forecast Email!

Thanks for signing up!

Be on the lookout for a verification email in your inbox.

You'll start receiving the daily forecast at 8 AM.

×

10-Day Weather Forecast

Almanac

Astronomy

Feb. 22, 2017 Rise Set
Actual Time
Civil Twilight
Nautical Twilight
Astronomical Twilight
Moon
Length of Visible Light
Length of Day
Tomorrow will be .
, % of the Moon is Illuminated

Today's Extremes

State Highs State Lows

Community

WunderPhotos

Upload Photos

1,962,540 photos uploaded!

WunderBlog® & News

Nearby

Air Quality

  Air Quality AQ Index Pollutant
Not available.

Snow Depth

Station Depth Elevation

Earthquake Activity

City Distance Mag. Time & Date
Minimum magnitude displayed is 2.5.

Coastal Water Temperatures

Place Temperature

Stations

Nearby Weather Stations

Station Location Temp. Windchill Dew Point Humidity Wind Precip. Elev Updated Type
                   

Watches & Warnings

High Surf Advisory
Issued: 5:29 AM PST Feb. 22, 2017 – National Weather Service

... High surf advisory remains in effect until 2 am PST Friday...

* waves and surf... surf building to 5 to 8 ft with sets to 10 ft
this afternoon and continuing through Thursday morning. Swell
and surf will slowly lower during the day Thursday.

* Timing... through Thursday night with the highest surf expected
late this afternoon and evening.

* Tides... high tide of 4.8 to 5 ft at around 610 am today and 5.2
to 5.3 ft at around 645 am Thursday.

* Impacts... strong rip currents and dangerous swimming conditions.
Minor flooding possible at susceptible low lying beach areas
during high tide.

Precautionary/preparedness actions...

A high surf advisory means that high surf will affect beaches in
the advisory area... producing localized beach erosion and
dangerous swimming conditions.